Du har inga inställningar för hoppväder.nu

Hoppväder.nu

Senast uppdaterat 05:15

UTC-tid

2018-06-20 kl. 03:15


Sol och måne

Solen går upp 2:14 och går ner 23:07 (beräknade cirkatider)
Nästa fullmåne blir om 8 dagar (2018-06-28)

METAR

ESNU (Umeå)
(25 minuter sedan)
ESNU 200250Z 25007KT CAVOK 11/04 Q0999=



ESNO (Örnsköldsvik)
(25 minuter sedan)
ESNO 200250Z AUTO 27012KT 9999 NCD 11/03 Q1000=



ESNS (Skellefteå)
(25 minuter sedan)
ESNS 200250Z AUTO 26015KT 9999 NCD 11/05 Q0996=









TAF

ESNU (Umeå)
(45 minuter sedan)
ESNU 200230Z 2003/2012 26010KT CAVOK BECMG 2005/2008 28015G25KT=



ESNO (Örnsköldsvik)
ESNO



ESNS (Skellefteå)
ESNS





Kodnycklar till TAF och METAR






LHP

(Umeå är område A1c i Norra delen)

Prognos är inte uppdaterad




Spotting

Hur fungerar spotthjälpen och Vindkartan?

Markvind är ca 0 m/s.



Vindkartan

Senast uppdaterad 05:15




All data kommer från LFV.se